Terminal Aerodrome Forecast
Issued by NWS

Home | Current Version | Previous Version | Text Only | Print | Product List | Glossary On
Versions: 1 2 3 4 5 6 7 8 9 10 11 12 13 14
000
FTUS44 KCRP 190500
TAFALI
TAF
KALI 190533Z 1906/2006 14010KT P6SM FEW035 SCT100
     FM191100 VRB03KT 5SM BR SCT150
      TEMPO 1911/1914 2SM BR FEW005
     FM191500 13010KT P6SM VCSH FEW025 BKN150
     FM200000 13008KT P6SM BKN035=

USA.gov is the U.S. government's official web portal to all federal, state and local government web resources and services.